Terminal Aerodrome Forecast
Issued by NWS

Home | Current Version | Previous Version | Text Only | Print | Product List | Glossary On
Versions: 1 2 3 4 5 6 7 8 9 10 11 12 13 14 15 16 17 18 19
000
FTUS44 KLZK 240300 AAD
TAFLLQ
TAF AMD
KLLQ 240311Z 2403/2424 30007KT P6SM SCT010
     FM240800 VRB02KT 4SM BR SCT015
     FM241200 36007KT P6SM SKC=

USA.gov is the U.S. government's official web portal to all federal, state and local government web resources and services.